sensor_id;sensor_type;location;lat;lon;timestamp;pressure;altitude;pressure_sealevel;temperature;humidity
15998;BME280;8103;51.340;12.326;2022-10-16T00:01:40;99944.19;;;17.21;nan
15998;BME280;8103;51.340;12.326;2022-10-16T00:04:10;99933.66;;;17.19;nan
15998;BME280;8103;51.340;12.326;2022-10-16T00:06:37;99933.56;;;17.24;nan
15998;BME280;8103;51.340;12.326;2022-10-16T00:09:05;99925.44;;;17.24;nan
15998;BME280;8103;51.340;12.326;2022-10-16T00:11:35;99922.00;;;17.19;nan
15998;BME280;8103;51.340;12.326;2022-10-16T00:14:11;99931.84;;;17.15;nan
15998;BME280;8103;51.340;12.326;2022-10-16T00:16:39;99926.72;;;17.13;nan
15998;BME280;8103;51.340;12.326;2022-10-16T00:19:06;99943.28;;;17.12;nan
15998;BME280;8103;51.340;12.326;2022-10-16T00:21:34;99938.69;;;17.12;nan
15998;BME280;8103;51.340;12.326;2022-10-16T00:24:08;99946.22;;;17.15;nan
15998;BME280;8103;51.340;12.326;2022-10-16T00:26:36;99949.91;;;17.19;nan
15998;BME280;8103;51.340;12.326;2022-10-16T00:29:05;99957.66;;;17.26;nan
15998;BME280;8103;51.340;12.326;2022-10-16T00:31:32;99944.28;;;17.29;nan
15998;BME280;8103;51.340;12.326;2022-10-16T00:34:00;99956.53;;;17.27;nan
15998;BME280;8103;51.340;12.326;2022-10-16T00:36:31;99957.53;;;17.31;nan
15998;BME280;8103;51.340;12.326;2022-10-16T00:38:59;99958.94;;;17.28;nan
15998;BME280;8103;51.340;12.326;2022-10-16T00:41:33;99964.69;;;17.27;nan
15998;BME280;8103;51.340;12.326;2022-10-16T00:44:03;99963.56;;;17.28;nan
15998;BME280;8103;51.340;12.326;2022-10-16T00:46:50;99965.47;;;17.27;nan
15998;BME280;8103;51.340;12.326;2022-10-16T00:49:19;99964.97;;;17.25;nan
15998;BME280;8103;51.340;12.326;2022-10-16T00:51:53;99971.50;;;17.24;nan
15998;BME280;8103;51.340;12.326;2022-10-16T00:54:30;99975.91;;;17.20;nan
15998;BME280;8103;51.340;12.326;2022-10-16T00:57:03;99964.38;;;17.15;nan
15998;BME280;8103;51.340;12.326;2022-10-16T00:59:39;99967.97;;;17.10;nan
15998;BME280;8103;51.340;12.326;2022-10-16T01:02:11;99963.97;;;17.08;nan
15998;BME280;8103;51.340;12.326;2022-10-16T01:04:45;99959.97;;;17.05;nan
15998;BME280;8103;51.340;12.326;2022-10-16T01:10:22;99964.78;;;17.08;nan
15998;BME280;8103;51.340;12.326;2022-10-16T01:13:01;99968.09;;;17.05;nan
15998;BME280;8103;51.340;12.326;2022-10-16T01:16:05;99959.97;;;17.05;nan
15998;BME280;8103;51.340;12.326;2022-10-16T01:18:43;99963.75;;;17.04;nan
15998;BME280;8103;51.340;12.326;2022-10-16T01:21:29;99961.56;;;17.06;nan
15998;BME280;8103;51.340;12.326;2022-10-16T01:24:39;99963.75;;;17.04;nan
15998;BME280;8103;51.340;12.326;2022-10-16T01:27:21;99958.94;;;17.01;nan
15998;BME280;8103;51.340;12.326;2022-10-16T01:30:17;99966.56;;;16.99;nan
15998;BME280;8103;51.340;12.326;2022-10-16T01:33:03;99974.19;;;16.97;nan
15998;BME280;8103;51.340;12.326;2022-10-16T01:35:59;99972.19;;;16.89;nan
15998;BME280;8103;51.340;12.326;2022-10-16T01:38:37;99978.91;;;16.91;nan
15998;BME280;8103;51.340;12.326;2022-10-16T01:41:24;99988.44;;;16.89;nan
15998;BME280;8103;51.340;12.326;2022-10-16T01:46:38;99981.38;;;16.88;nan
15998;BME280;8103;51.340;12.326;2022-10-16T01:49:08;99983.59;;;16.86;nan
15998;BME280;8103;51.340;12.326;2022-10-16T01:51:37;100000.88;;;16.90;nan
15998;BME280;8103;51.340;12.326;2022-10-16T01:54:08;99995.44;;;16.90;nan
15998;BME280;8103;51.340;12.326;2022-10-16T01:56:36;99993.34;;;16.87;nan
15998;BME280;8103;51.340;12.326;2022-10-16T01:59:11;99995.22;;;16.86;nan
15998;BME280;8103;51.340;12.326;2022-10-16T02:01:48;99996.63;;;16.84;nan
15998;BME280;8103;51.340;12.326;2022-10-16T02:04:31;99982.38;;;16.78;nan
15998;BME280;8103;51.340;12.326;2022-10-16T02:06:59;99985.41;;;16.77;nan
15998;BME280;8103;51.340;12.326;2022-10-16T02:09:26;99981.56;;;16.78;nan
15998;BME280;8103;51.340;12.326;2022-10-16T02:11:57;99976.16;;;16.78;nan
15998;BME280;8103;51.340;12.326;2022-10-16T02:14:26;99980.16;;;16.80;nan
15998;BME280;8103;51.340;12.326;2022-10-16T02:16:53;99969.03;;;16.82;nan
15998;BME280;8103;51.340;12.326;2022-10-16T02:19:22;99969.03;;;16.82;nan
15998;BME280;8103;51.340;12.326;2022-10-16T02:22:01;99972.34;;;16.79;nan
15998;BME280;8103;51.340;12.326;2022-10-16T02:33:08;100009.44;;;16.65;nan
15998;BME280;8103;51.340;12.326;2022-10-16T02:35:37;100017.03;;;16.63;nan
15998;BME280;8103;51.340;12.326;2022-10-16T02:38:06;100014.31;;;16.63;nan
15998;BME280;8103;51.340;12.326;2022-10-16T02:40:34;100003.00;;;16.61;nan
15998;BME280;8103;51.340;12.326;2022-10-16T02:43:04;100003.00;;;16.61;nan
15998;BME280;8103;51.340;12.326;2022-10-16T02:45:33;100008.41;;;16.61;nan
15998;BME280;8103;51.340;12.326;2022-10-16T02:48:00;100004.59;;;16.62;nan
15998;BME280;8103;51.340;12.326;2022-10-16T02:50:27;99990.53;;;16.60;nan
15998;BME280;8103;51.340;12.326;2022-10-16T02:52:54;99995.97;;;16.60;nan
15998;BME280;8103;51.340;12.326;2022-10-16T02:55:21;100002.28;;;16.55;nan
15998;BME280;8103;51.340;12.326;2022-10-16T02:57:48;100000.38;;;16.56;nan
15998;BME280;8103;51.340;12.326;2022-10-16T03:00:17;99995.53;;;16.53;nan
15998;BME280;8103;51.340;12.326;2022-10-16T03:02:44;100003.16;;;16.51;nan
15998;BME280;8103;51.340;12.326;2022-10-16T03:05:12;100012.66;;;16.48;nan
15998;BME280;8103;51.340;12.326;2022-10-16T03:07:40;100005.94;;;16.46;nan
15998;BME280;8103;51.340;12.326;2022-10-16T03:10:07;100010.53;;;16.45;nan
15998;BME280;8103;51.340;12.326;2022-10-16T03:12:35;100013.56;;;16.44;nan
15998;BME280;8103;51.340;12.326;2022-10-16T03:15:02;100013.81;;;16.42;nan
15998;BME280;8103;51.340;12.326;2022-10-16T03:17:31;100017.91;;;16.40;nan
15998;BME280;8103;51.340;12.326;2022-10-16T03:19:59;100012.50;;;16.40;nan
15998;BME280;8103;51.340;12.326;2022-10-16T03:22:26;100014.09;;;16.41;nan
15998;BME280;8103;51.340;12.326;2022-10-16T03:24:53;100011.69;;;16.39;nan
15998;BME280;8103;51.340;12.326;2022-10-16T03:27:20;100015.81;;;16.37;nan
15998;BME280;8103;51.340;12.326;2022-10-16T03:29:48;100020.72;;;16.35;nan
15998;BME280;8103;51.340;12.326;2022-10-16T03:32:15;100039.66;;;16.35;nan
15998;BME280;8103;51.340;12.326;2022-10-16T03:34:42;100045.56;;;16.37;nan
15998;BME280;8103;51.340;12.326;2022-10-16T03:37:09;100044.50;;;16.38;nan
15998;BME280;8103;51.340;12.326;2022-10-16T03:39:36;100037.44;;;16.37;nan
15998;BME280;8103;51.340;12.326;2022-10-16T03:42:03;100042.06;;;16.36;nan
15998;BME280;8103;51.340;12.326;2022-10-16T03:44:30;100033.16;;;16.36;nan
15998;BME280;8103;51.340;12.326;2022-10-16T03:46:57;100022.31;;;16.36;nan
15998;BME280;8103;51.340;12.326;2022-10-16T03:49:24;100007.69;;;16.37;nan
15998;BME280;8103;51.340;12.326;2022-10-16T03:51:51;100015.00;;;16.36;nan
15998;BME280;8103;51.340;12.326;2022-10-16T03:54:18;100010.38;;;16.37;nan
15998;BME280;8103;51.340;12.326;2022-10-16T03:56:45;100011.50;;;16.36;nan
15998;BME280;8103;51.340;12.326;2022-10-16T03:59:12;100004.19;;;16.36;nan
15998;BME280;8103;51.340;12.326;2022-10-16T04:01:39;100015.81;;;16.37;nan
15998;BME280;8103;51.340;12.326;2022-10-16T04:04:06;100023.91;;;16.37;nan
15998;BME280;8103;51.340;12.326;2022-10-16T04:06:33;100022.31;;;16.36;nan
15998;BME280;8103;51.340;12.326;2022-10-16T04:09:00;100015.91;;;16.32;nan
15998;BME280;8103;51.340;12.326;2022-10-16T04:11:27;100014.78;;;16.33;nan
15998;BME280;8103;51.340;12.326;2022-10-16T04:13:54;100019.38;;;16.32;nan
15998;BME280;8103;51.340;12.326;2022-10-16T04:16:21;100012.09;;;16.33;nan
15998;BME280;8103;51.340;12.326;2022-10-16T04:18:48;100016.97;;;16.31;nan
15998;BME280;8103;51.340;12.326;2022-10-16T04:21:15;100014.84;;;16.28;nan
15998;BME280;8103;51.340;12.326;2022-10-16T04:23:42;100031.38;;;16.26;nan
15998;BME280;8103;51.340;12.326;2022-10-16T04:26:09;100034.38;;;16.25;nan
15998;BME280;8103;51.340;12.326;2022-10-16T04:28:37;100034.66;;;16.23;nan
15998;BME280;8103;51.340;12.326;2022-10-16T04:31:05;100053.91;;;16.22;nan
15998;BME280;8103;51.340;12.326;2022-10-16T04:33:33;100048.78;;;16.20;nan
15998;BME280;8103;51.340;12.326;2022-10-16T04:36:02;100054.47;;;16.19;nan
15998;BME280;8103;51.340;12.326;2022-10-16T04:38:31;100049.69;;;16.16;nan
15998;BME280;8103;51.340;12.326;2022-10-16T04:40:58;100055.09;;;16.16;nan
15998;BME280;8103;51.340;12.326;2022-10-16T04:43:25;100057.81;;;16.16;nan
15998;BME280;8103;51.340;12.326;2022-10-16T04:45:52;100062.91;;;16.17;nan
15998;BME280;8103;51.340;12.326;2022-10-16T04:48:21;100070.72;;;16.19;nan
15998;BME280;8103;51.340;12.326;2022-10-16T04:50:48;100069.94;;;16.18;nan
15998;BME280;8103;51.340;12.326;2022-10-16T04:53:18;100062.00;;;16.22;nan
15998;BME280;8103;51.340;12.326;2022-10-16T04:55:45;100081.47;;;16.24;nan
15998;BME280;8103;51.340;12.326;2022-10-16T04:58:12;100085.19;;;16.28;nan
15998;BME280;8103;51.340;12.326;2022-10-16T05:00:39;100075.19;;;16.28;nan
15998;BME280;8103;51.340;12.326;2022-10-16T05:03:06;100085.44;;;16.31;nan
15998;BME280;8103;51.340;12.326;2022-10-16T05:05:36;100091.66;;;16.32;nan
15998;BME280;8103;51.340;12.326;2022-10-16T05:08:03;100094.88;;;16.34;nan
15998;BME280;8103;51.340;12.326;2022-10-16T05:10:30;100092.09;;;16.39;nan
15998;BME280;8103;51.340;12.326;2022-10-16T05:12:58;100097.50;;;16.39;nan
15998;BME280;8103;51.340;12.326;2022-10-16T05:15:25;100089.97;;;16.36;nan
15998;BME280;8103;51.340;12.326;2022-10-16T05:17:53;100091.66;;;16.32;nan
15998;BME280;8103;51.340;12.326;2022-10-16T05:20:22;100087.84;;;16.33;nan
15998;BME280;8103;51.340;12.326;2022-10-16T05:22:49;100090.03;;;16.31;nan
15998;BME280;8103;51.340;12.326;2022-10-16T05:25:16;100085.72;;;16.30;nan
15998;BME280;8103;51.340;12.326;2022-10-16T05:27:47;100103.06;;;16.29;nan
15998;BME280;8103;51.340;12.326;2022-10-16T05:30:16;100107.91;;;16.32;nan
15998;BME280;8103;51.340;12.326;2022-10-16T05:32:48;100098.44;;;16.29;nan
15998;BME280;8103;51.340;12.326;2022-10-16T05:35:17;100104.72;;;16.25;nan
15998;BME280;8103;51.340;12.326;2022-10-16T05:37:45;100104.44;;;16.26;nan
15998;BME280;8103;51.340;12.326;2022-10-16T05:40:13;100100.94;;;16.26;nan
15998;BME280;8103;51.340;12.326;2022-10-16T05:42:40;100102.84;;;16.25;nan
15998;BME280;8103;51.340;12.326;2022-10-16T05:45:10;100105.25;;;16.27;nan
15998;BME280;8103;51.340;12.326;2022-10-16T05:47:39;100104.44;;;16.26;nan
15998;BME280;8103;51.340;12.326;2022-10-16T05:50:07;100107.44;;;16.25;nan
15998;BME280;8103;51.340;12.326;2022-10-16T05:52:34;100114.69;;;16.29;nan
15998;BME280;8103;51.340;12.326;2022-10-16T05:55:01;100117.91;;;16.31;nan
15998;BME280;8103;51.340;12.326;2022-10-16T05:57:28;100128.44;;;16.33;nan
15998;BME280;8103;51.340;12.326;2022-10-16T05:59:55;100125.63;;;16.43;nan
15998;BME280;8103;51.340;12.326;2022-10-16T06:02:22;100132.88;;;16.47;nan
15998;BME280;8103;51.340;12.326;2022-10-16T06:04:51;100125.47;;;16.53;nan
15998;BME280;8103;51.340;12.326;2022-10-16T06:07:21;100140.50;;;16.64;nan
15998;BME280;8103;51.340;12.326;2022-10-16T06:09:50;100138.22;;;16.71;nan
15998;BME280;8103;51.340;12.326;2022-10-16T06:12:18;100141.34;;;16.78;nan
15998;BME280;8103;51.340;12.326;2022-10-16T06:14:46;100133.94;;;16.83;nan
15998;BME280;8103;51.340;12.326;2022-10-16T06:17:33;100133.28;;;16.91;nan
15998;BME280;8103;51.340;12.326;2022-10-16T06:20:00;100136.13;;;17.00;nan
15998;BME280;8103;51.340;12.326;2022-10-16T06:22:28;100142.56;;;17.04;nan
15998;BME280;8103;51.340;12.326;2022-10-16T06:24:55;100145.19;;;17.09;nan
15998;BME280;8103;51.340;12.326;2022-10-16T06:27:22;100154.34;;;17.13;nan
15998;BME280;8103;51.340;12.326;2022-10-16T06:29:49;100147.25;;;17.17;nan
15998;BME280;8103;51.340;12.326;2022-10-16T06:32:16;100149.03;;;17.22;nan
15998;BME280;8103;51.340;12.326;2022-10-16T06:34:43;100158.91;;;17.31;nan
15998;BME280;8103;51.340;12.326;2022-10-16T06:37:10;100164.28;;;17.36;nan
15998;BME280;8103;51.340;12.326;2022-10-16T06:39:37;100162.56;;;17.40;nan
15998;BME280;8103;51.340;12.326;2022-10-16T06:42:04;100168.00;;;17.40;nan
15998;BME280;8103;51.340;12.326;2022-10-16T06:44:31;100170.78;;;17.35;nan
15998;BME280;8103;51.340;12.326;2022-10-16T06:46:58;100171.00;;;17.39;nan
15998;BME280;8103;51.340;12.326;2022-10-16T06:49:25;100177.72;;;17.41;nan
15998;BME280;8103;51.340;12.326;2022-10-16T06:51:52;100180.97;;;17.43;nan
15998;BME280;8103;51.340;12.326;2022-10-16T06:54:19;100180.09;;;17.48;nan
15998;BME280;8103;51.340;12.326;2022-10-16T06:56:47;100174.06;;;17.51;nan
15998;BME280;8103;51.340;12.326;2022-10-16T06:59:15;100181.91;;;17.52;nan
15998;BME280;8103;51.340;12.326;2022-10-16T07:01:42;100180.88;;;17.48;nan
15998;BME280;8103;51.340;12.326;2022-10-16T07:04:09;100175.38;;;17.53;nan
15998;BME280;8103;51.340;12.326;2022-10-16T07:06:35;100178.19;;;17.62;nan
15998;BME280;8103;51.340;12.326;2022-10-16T07:09:06;100174.50;;;17.71;nan
15998;BME280;8103;51.340;12.326;2022-10-16T07:11:34;100168.31;;;17.84;nan
15998;BME280;8103;51.340;12.326;2022-10-16T07:14:01;100146.41;;;17.94;nan
15998;BME280;8103;51.340;12.326;2022-10-16T07:16:32;100122.50;;;17.96;nan
15998;BME280;8103;51.340;12.326;2022-10-16T07:19:01;100139.94;;;18.04;nan
15998;BME280;8103;51.340;12.326;2022-10-16T07:21:33;100146.09;;;18.09;nan
15998;BME280;8103;51.340;12.326;2022-10-16T07:24:12;100175.84;;;18.14;nan
15998;BME280;8103;51.340;12.326;2022-10-16T07:26:41;100181.16;;;18.33;nan
15998;BME280;8103;51.340;12.326;2022-10-16T07:29:19;100201.59;;;18.57;nan
15998;BME280;8103;51.340;12.326;2022-10-16T07:31:48;100203.66;;;18.74;nan
15998;BME280;8103;51.340;12.326;2022-10-16T07:34:17;100217.31;;;18.82;nan
15998;BME280;8103;51.340;12.326;2022-10-16T07:36:48;100220.34;;;18.81;nan
15998;BME280;8103;51.340;12.326;2022-10-16T07:39:15;100213.50;;;18.83;nan
15998;BME280;8103;51.340;12.326;2022-10-16T07:41:42;100206.22;;;18.92;nan
15998;BME280;8103;51.340;12.326;2022-10-16T07:44:09;100210.44;;;18.98;nan
15998;BME280;8103;51.340;12.326;2022-10-16T07:46:36;100209.22;;;19.05;nan
15998;BME280;8103;51.340;12.326;2022-10-16T07:49:03;100217.41;;;19.27;nan
15998;BME280;8103;51.340;12.326;2022-10-16T07:51:30;100220.75;;;19.46;nan
15998;BME280;8103;51.340;12.326;2022-10-16T07:53:57;100227.22;;;19.58;nan
15998;BME280;8103;51.340;12.326;2022-10-16T07:56:25;100231.84;;;19.80;nan
15998;BME280;8103;51.340;12.326;2022-10-16T07:58:52;100238.13;;;19.89;nan
15998;BME280;8103;51.340;12.326;2022-10-16T08:01:20;100237.09;;;20.07;nan
15998;BME280;8103;51.340;12.326;2022-10-16T08:03:50;100239.81;;;20.29;nan
15998;BME280;8103;51.340;12.326;2022-10-16T08:06:20;100246.44;;;20.53;nan
15998;BME280;8103;51.340;12.326;2022-10-16T08:08:49;100243.75;;;20.62;nan
15998;BME280;8103;51.340;12.326;2022-10-16T08:11:16;100244.88;;;20.69;nan
15998;BME280;8103;51.340;12.326;2022-10-16T08:13:43;100254.38;;;20.72;nan
15998;BME280;8103;51.340;12.326;2022-10-16T08:16:10;100251.47;;;20.77;nan
15998;BME280;8103;51.340;12.326;2022-10-16T08:18:40;100259.25;;;21.09;nan
15998;BME280;8103;51.340;12.326;2022-10-16T08:21:12;100262.97;;;21.30;nan
15998;BME280;8103;51.340;12.326;2022-10-16T08:23:44;100271.78;;;21.27;nan
15998;BME280;8103;51.340;12.326;2022-10-16T08:26:12;100277.88;;;21.07;nan
15998;BME280;8103;51.340;12.326;2022-10-16T08:28:39;100289.00;;;20.80;nan
15998;BME280;8103;51.340;12.326;2022-10-16T08:31:13;100268.91;;;20.59;nan
15998;BME280;8103;51.340;12.326;2022-10-16T08:33:43;100266.16;;;20.59;nan
15998;BME280;8103;51.340;12.326;2022-10-16T08:36:12;100267.66;;;20.73;nan
15998;BME280;8103;51.340;12.326;2022-10-16T08:38:39;100272.97;;;20.87;nan
15998;BME280;8103;51.340;12.326;2022-10-16T08:47:56;100290.47;;;20.86;nan
15998;BME280;8103;51.340;12.326;2022-10-16T08:50:33;100280.06;;;20.88;nan
15998;BME280;8103;51.340;12.326;2022-10-16T08:53:05;100288.13;;;21.44;nan
15998;BME280;8103;51.340;12.326;2022-10-16T08:55:46;100288.88;;;22.13;nan
15998;BME280;8103;51.340;12.326;2022-10-16T08:58:19;100301.97;;;22.36;nan
15998;BME280;8103;51.340;12.326;2022-10-16T09:00:53;100307.88;;;22.55;nan
15998;BME280;8103;51.340;12.326;2022-10-16T09:03:38;100306.88;;;22.68;nan
15998;BME280;8103;51.340;12.326;2022-10-16T09:13:02;100325.72;;;24.58;nan
15998;BME280;8103;51.340;12.326;2022-10-16T09:15:46;100321.47;;;25.21;nan
15998;BME280;8103;51.340;12.326;2022-10-16T09:23:36;100324.50;;;26.54;nan
15998;BME280;8103;51.340;12.326;2022-10-16T09:26:05;100321.50;;;26.00;nan
15998;BME280;8103;51.340;12.326;2022-10-16T09:28:36;100323.69;;;25.67;nan
15998;BME280;8103;51.340;12.326;2022-10-16T09:31:03;100332.06;;;26.14;nan
15998;BME280;8103;51.340;12.326;2022-10-16T09:33:35;100336.84;;;26.01;nan
15998;BME280;8103;51.340;12.326;2022-10-16T09:36:05;100331.56;;;25.41;nan
15998;BME280;8103;51.340;12.326;2022-10-16T09:38:35;100329.97;;;26.23;nan
15998;BME280;8103;51.340;12.326;2022-10-16T09:41:23;100325.09;;;27.10;nan
15998;BME280;8103;51.340;12.326;2022-10-16T09:43:57;100335.06;;;28.47;nan
15998;BME280;8103;51.340;12.326;2022-10-16T09:46:28;100340.28;;;28.33;nan
15998;BME280;8103;51.340;12.326;2022-10-16T09:48:59;100347.72;;;27.34;nan
15998;BME280;8103;51.340;12.326;2022-10-16T09:51:33;100331.22;;;27.03;nan
15998;BME280;8103;51.340;12.326;2022-10-16T09:56:37;100347.66;;;25.31;nan
15998;BME280;8103;51.340;12.326;2022-10-16T09:59:16;100348.84;;;24.25;nan
15998;BME280;8103;51.340;12.326;2022-10-16T10:01:55;100360.06;;;23.79;nan
15998;BME280;8103;51.340;12.326;2022-10-16T10:04:36;100349.25;;;23.41;nan
15998;BME280;8103;51.340;12.326;2022-10-16T10:07:04;100341.69;;;24.00;nan
15998;BME280;8103;51.340;12.326;2022-10-16T10:09:38;100348.50;;;25.07;nan
15998;BME280;8103;51.340;12.326;2022-10-16T10:12:20;100356.06;;;24.98;nan
15998;BME280;8103;51.340;12.326;2022-10-16T10:14:55;100358.25;;;24.48;nan
15998;BME280;8103;51.340;12.326;2022-10-16T10:17:27;100374.19;;;24.22;nan
15998;BME280;8103;51.340;12.326;2022-10-16T10:20:25;100366.69;;;23.78;nan
15998;BME280;8103;51.340;12.326;2022-10-16T10:22:52;100374.91;;;23.57;nan
15998;BME280;8103;51.340;12.326;2022-10-16T10:28:42;100375.53;;;23.05;nan
15998;BME280;8103;51.340;12.326;2022-10-16T10:31:48;100371.56;;;23.52;nan
15998;BME280;8103;51.340;12.326;2022-10-16T10:34:41;100377.78;;;23.61;nan
15998;BME280;8103;51.340;12.326;2022-10-16T10:42:57;100368.75;;;23.11;nan
15998;BME280;8103;51.340;12.326;2022-10-16T10:45:42;100373.06;;;22.82;nan
15998;BME280;8103;51.340;12.326;2022-10-16T10:51:31;100373.81;;;22.54;nan
15998;BME280;8103;51.340;12.326;2022-10-16T10:54:54;100384.25;;;22.60;nan
15998;BME280;8103;51.340;12.326;2022-10-16T10:58:04;100384.38;;;22.72;nan
15998;BME280;8103;51.340;12.326;2022-10-16T11:00:52;100381.63;;;22.72;nan
15998;BME280;8103;51.340;12.326;2022-10-16T11:04:08;100378.53;;;22.82;nan
15998;BME280;8103;51.340;12.326;2022-10-16T11:06:51;100374.75;;;22.66;nan
15998;BME280;8103;51.340;12.326;2022-10-16T11:09:32;100377.66;;;22.61;nan
15998;BME280;8103;51.340;12.326;2022-10-16T11:12:12;100378.28;;;22.58;nan
15998;BME280;8103;51.340;12.326;2022-10-16T11:15:22;100375.75;;;22.53;nan
15998;BME280;8103;51.340;12.326;2022-10-16T11:18:05;100380.88;;;22.63;nan
15998;BME280;8103;51.340;12.326;2022-10-16T11:20:42;100380.22;;;22.66;nan
15998;BME280;8103;51.340;12.326;2022-10-16T11:23:20;100378.91;;;22.72;nan
15998;BME280;8103;51.340;12.326;2022-10-16T11:25:51;100376.94;;;22.73;nan
15998;BME280;8103;51.340;12.326;2022-10-16T11:28:32;100375.97;;;22.77;nan
15998;BME280;8103;51.340;12.326;2022-10-16T11:31:15;100384.50;;;22.84;nan
15998;BME280;8103;51.340;12.326;2022-10-16T11:33:57;100383.72;;;22.75;nan
15998;BME280;8103;51.340;12.326;2022-10-16T11:39:27;100376.69;;;22.95;nan
15998;BME280;8103;51.340;12.326;2022-10-16T11:42:16;100392.09;;;23.08;nan
15998;BME280;8103;51.340;12.326;2022-10-16T11:45:36;100394.72;;;22.96;nan
15998;BME280;8103;51.340;12.326;2022-10-16T11:48:32;100397.78;;;22.94;nan
15998;BME280;8103;51.340;12.326;2022-10-16T11:51:33;100394.34;;;23.06;nan
15998;BME280;8103;51.340;12.326;2022-10-16T11:54:41;100395.72;;;23.21;nan
15998;BME280;8103;51.340;12.326;2022-10-16T11:57:22;100401.50;;;23.28;nan
15998;BME280;8103;51.340;12.326;2022-10-16T11:59:59;100397.72;;;23.41;nan
15998;BME280;8103;51.340;12.326;2022-10-16T12:02:54;100399.78;;;23.44;nan
15998;BME280;8103;51.340;12.326;2022-10-16T12:08:27;100402.06;;;23.42;nan
15998;BME280;8103;51.340;12.326;2022-10-16T12:16:58;100411.56;;;23.44;nan
15998;BME280;8103;51.340;12.326;2022-10-16T12:19:32;100409.81;;;23.40;nan
15998;BME280;8103;51.340;12.326;2022-10-16T12:22:02;100414.22;;;23.53;nan
15998;BME280;8103;51.340;12.326;2022-10-16T12:24:37;100415.44;;;23.43;nan
15998;BME280;8103;51.340;12.326;2022-10-16T12:27:30;100413.22;;;23.37;nan
15998;BME280;8103;51.340;12.326;2022-10-16T12:30:04;100416.59;;;23.34;nan
15998;BME280;8103;51.340;12.326;2022-10-16T12:32:36;100421.59;;;23.32;nan
15998;BME280;8103;51.340;12.326;2022-10-16T12:35:25;100422.09;;;23.34;nan
15998;BME280;8103;51.340;12.326;2022-10-16T12:37:54;100424.28;;;23.69;nan
15998;BME280;8103;51.340;12.326;2022-10-16T12:40:31;100419.25;;;24.12;nan
15998;BME280;8103;51.340;12.326;2022-10-16T12:43:23;100420.69;;;25.56;nan
15998;BME280;8103;51.340;12.326;2022-10-16T12:48:39;100429.44;;;24.65;nan
15998;BME280;8103;51.340;12.326;2022-10-16T12:51:36;100435.53;;;23.97;nan
15998;BME280;8103;51.340;12.326;2022-10-16T12:54:13;100426.84;;;23.45;nan
15998;BME280;8103;51.340;12.326;2022-10-16T12:56:57;100427.34;;;23.10;nan
15998;BME280;8103;51.340;12.326;2022-10-16T13:07:05;100427.94;;;24.67;nan
15998;BME280;8103;51.340;12.326;2022-10-16T13:18:28;100433.78;;;28.99;nan
15998;BME280;8103;51.340;12.326;2022-10-16T13:21:21;100429.88;;;31.68;nan
15998;BME280;8103;51.340;12.326;2022-10-16T13:28:27;100429.63;;;36.20;nan
15998;BME280;8103;51.340;12.326;2022-10-16T13:30:30;100436.94;;;35.36;nan
15998;BME280;8103;51.340;12.326;2022-10-16T13:33:05;100441.47;;;33.12;nan
15998;BME280;8103;51.340;12.326;2022-10-16T13:35:35;100441.22;;;32.07;nan
15998;BME280;8103;51.340;12.326;2022-10-16T13:38:16;100446.91;;;32.42;nan
15998;BME280;8103;51.340;12.326;2022-10-16T13:40:56;100437.91;;;32.98;nan
15998;BME280;8103;51.340;12.326;2022-10-16T13:43:51;100439.78;;;33.99;nan
15998;BME280;8103;51.340;12.326;2022-10-16T13:46:24;100454.88;;;34.01;nan
15998;BME280;8103;51.340;12.326;2022-10-16T13:49:04;100450.91;;;32.58;nan
15998;BME280;8103;51.340;12.326;2022-10-16T13:51:33;100461.69;;;30.84;nan
15998;BME280;8103;51.340;12.326;2022-10-16T13:54:00;100458.63;;;29.44;nan
15998;BME280;8103;51.340;12.326;2022-10-16T13:56:32;100466.38;;;28.29;nan
15998;BME280;8103;51.340;12.326;2022-10-16T13:59:06;100467.31;;;27.02;nan
15998;BME280;8103;51.340;12.326;2022-10-16T14:01:40;100465.78;;;26.18;nan
15998;BME280;8103;51.340;12.326;2022-10-16T14:04:11;100466.13;;;25.41;nan
15998;BME280;8103;51.340;12.326;2022-10-16T14:06:46;100469.13;;;24.79;nan
15998;BME280;8103;51.340;12.326;2022-10-16T14:09:24;100470.66;;;24.36;nan
15998;BME280;8103;51.340;12.326;2022-10-16T14:12:11;100472.78;;;23.89;nan
15998;BME280;8103;51.340;12.326;2022-10-16T14:14:47;100479.91;;;23.61;nan
15998;BME280;8103;51.340;12.326;2022-10-16T14:17:23;100473.72;;;23.44;nan
15998;BME280;8103;51.340;12.326;2022-10-16T14:19:55;100473.16;;;23.30;nan
15998;BME280;8103;51.340;12.326;2022-10-16T14:22:40;100470.44;;;23.13;nan
15998;BME280;8103;51.340;12.326;2022-10-16T14:31:00;100473.88;;;23.10;nan
15998;BME280;8103;51.340;12.326;2022-10-16T14:38:38;100484.88;;;23.39;nan
15998;BME280;8103;51.340;12.326;2022-10-16T14:41:06;100483.78;;;23.23;nan
15998;BME280;8103;51.340;12.326;2022-10-16T14:43:41;100493.97;;;23.14;nan
15998;BME280;8103;51.340;12.326;2022-10-16T14:46:19;100487.22;;;23.02;nan
15998;BME280;8103;51.340;12.326;2022-10-16T14:49:20;100490.66;;;22.91;nan
15998;BME280;8103;51.340;12.326;2022-10-16T14:51:48;100489.19;;;22.93;nan
15998;BME280;8103;51.340;12.326;2022-10-16T14:54:18;100493.06;;;22.92;nan
15998;BME280;8103;51.340;12.326;2022-10-16T14:56:56;100485.81;;;22.88;nan
15998;BME280;8103;51.340;12.326;2022-10-16T14:59:41;100484.09;;;22.75;nan
15998;BME280;8103;51.340;12.326;2022-10-16T15:04:49;100500.53;;;22.66;nan
15998;BME280;8103;51.340;12.326;2022-10-16T15:07:16;100503.41;;;22.61;nan
15998;BME280;8103;51.340;12.326;2022-10-16T15:09:43;100504.72;;;22.55;nan
15998;BME280;8103;51.340;12.326;2022-10-16T15:12:12;100503.25;;;22.41;nan
15998;BME280;8103;51.340;12.326;2022-10-16T15:14:39;100503.09;;;22.20;nan
15998;BME280;8103;51.340;12.326;2022-10-16T15:17:10;100499.53;;;22.03;nan
15998;BME280;8103;51.340;12.326;2022-10-16T15:19:37;100486.84;;;21.90;nan
15998;BME280;8103;51.340;12.326;2022-10-16T15:22:05;100494.19;;;21.72;nan